KMCX

White County Airport

Monticello, Indiana, USA
METAR KMCX 151335Z AUTO 24010KT 10SM BKN026 OVC049 M04/M08 A2997 RMK AO2 T10451083
Observed Flight Rules
Dec-15 @ 13:35 UTC (19 minutes ago) Marginal Visual Flight Rules
Wind Visibility Clouds
240° at 10 knots 10 miles
  • Broken at 2,600' AGL
  • Overcast at 4,900' AGL
Temperatures Readings
Current -5°C / 23°F
Dewpoint -8°C / 18°F
Humidity 80%
Altimeter 29.97" Hg
Pressure 1015 hPa
Elevation 206
METAR KMCX 151335Z AUTO 24010KT 10SM BKN026 OVC049 M04/M08 A2997 RMK AO2 T10451083
Observed Flight Rules
Dec-15 @ 13:35 UTC
(19 minutes ago)
MVFR
Wind Visibility
240° at 10 knots 10 miles
Clouds
  • Broken at 2,600' AGL
  • Overcast at 4,900' AGL
Temperature Dewpoint
-5°C / 23°F -8°C / 18°F
Humidity Altimeter Pressure
80% 29.97" Hg 1015 hPa